Terminal Aerodrome Forecast
Issued by NWS

Home | Current Version | Previous Version | Text Only | Print | Product List | Glossary On
Versions: 1 2 3 4 5 6 7 8 9 10 11 12 13 14 15 16 17 18 19 20 21 22 23 24
000
FTUS44 KBMX 052000 AAA
TAFEET
TAF AMD
KEET 052009Z 0520/0618 33012G20KT 6SM -FZRAPL BR SCT007 OVC012
     FM052300 35012G20KT P6SM OVC015
     FM060300 36012KT P6SM OVC025
     FM060700 34010KT P6SM OVC050
     FM061500 35007KT P6SM SKC=

USA.gov is the U.S. government's official web portal to all federal, state and local government web resources and services.